sensor_id;sensor_type;location;lat;lon;timestamp;temperature;humidity
17341;DHT22;8788;49.930;8.660;2022-08-25T04:06:36;21.40;87.90
17341;DHT22;8788;49.930;8.660;2022-08-25T04:09:04;21.30;87.80
17341;DHT22;8788;49.930;8.660;2022-08-25T04:11:31;21.30;88.80
17341;DHT22;8788;49.930;8.660;2022-08-25T04:13:59;21.20;88.30
17341;DHT22;8788;49.930;8.660;2022-08-25T04:16:28;21.20;88.60
17341;DHT22;8788;49.930;8.660;2022-08-25T04:18:57;21.10;88.70
17341;DHT22;8788;49.930;8.660;2022-08-25T04:21:25;21.10;89.00
17341;DHT22;8788;49.930;8.660;2022-08-25T04:23:55;21.00;89.30
17341;DHT22;8788;49.930;8.660;2022-08-25T04:26:24;21.00;89.70
17341;DHT22;8788;49.930;8.660;2022-08-25T04:28:53;21.00;90.00
17341;DHT22;8788;49.930;8.660;2022-08-25T04:31:20;20.90;90.00
17341;DHT22;8788;49.930;8.660;2022-08-25T04:33:48;20.90;90.10
17341;DHT22;8788;49.930;8.660;2022-08-25T04:36:16;20.90;90.30
17341;DHT22;8788;49.930;8.660;2022-08-25T04:38:45;20.80;90.40
17341;DHT22;8788;49.930;8.660;2022-08-25T04:41:16;20.80;90.50
17341;DHT22;8788;49.930;8.660;2022-08-25T04:43:43;20.80;90.70
17341;DHT22;8788;49.930;8.660;2022-08-25T04:46:13;20.70;90.80
17341;DHT22;8788;49.930;8.660;2022-08-25T04:48:40;20.80;90.90
17341;DHT22;8788;49.930;8.660;2022-08-25T04:51:10;20.80;91.00
17341;DHT22;8788;49.930;8.660;2022-08-25T04:53:38;20.80;91.20
17341;DHT22;8788;49.930;8.660;2022-08-25T04:56:06;20.80;91.30
17341;DHT22;8788;49.930;8.660;2022-08-25T04:58:36;20.80;91.40
17341;DHT22;8788;49.930;8.660;2022-08-25T05:01:03;20.80;91.50
17341;DHT22;8788;49.930;8.660;2022-08-25T05:03:31;20.80;91.60
17341;DHT22;8788;49.930;8.660;2022-08-25T05:05:58;20.80;91.70
17341;DHT22;8788;49.930;8.660;2022-08-25T05:08:25;20.80;92.00
17341;DHT22;8788;49.930;8.660;2022-08-25T05:10:52;20.80;92.20
17341;DHT22;8788;49.930;8.660;2022-08-25T05:13:22;20.80;92.30
17341;DHT22;8788;49.930;8.660;2022-08-25T05:15:55;20.90;92.40
17341;DHT22;8788;49.930;8.660;2022-08-25T05:18:24;21.00;92.60
17341;DHT22;8788;49.930;8.660;2022-08-25T05:20:52;21.00;92.60
17341;DHT22;8788;49.930;8.660;2022-08-25T05:23:20;21.10;92.70
17341;DHT22;8788;49.930;8.660;2022-08-25T05:25:48;21.10;92.70
17341;DHT22;8788;49.930;8.660;2022-08-25T05:28:15;21.10;92.80
17341;DHT22;8788;49.930;8.660;2022-08-25T05:30:43;21.20;93.10
17341;DHT22;8788;49.930;8.660;2022-08-25T05:33:12;21.20;93.20
17341;DHT22;8788;49.930;8.660;2022-08-25T05:35:40;21.20;93.20
17341;DHT22;8788;49.930;8.660;2022-08-25T05:38:08;21.20;93.20
17341;DHT22;8788;49.930;8.660;2022-08-25T05:40:35;21.30;93.30
17341;DHT22;8788;49.930;8.660;2022-08-25T05:43:02;21.30;93.30
17341;DHT22;8788;49.930;8.660;2022-08-25T05:45:29;21.30;93.50
17341;DHT22;8788;49.930;8.660;2022-08-25T05:47:57;21.30;93.60
17341;DHT22;8788;49.930;8.660;2022-08-25T05:50:25;21.30;93.80
17341;DHT22;8788;49.930;8.660;2022-08-25T05:52:53;21.40;94.00
17341;DHT22;8788;49.930;8.660;2022-08-25T05:55:20;21.40;94.20
17341;DHT22;8788;49.930;8.660;2022-08-25T05:57:47;21.50;94.40
17341;DHT22;8788;49.930;8.660;2022-08-25T06:00:15;21.60;94.50
17341;DHT22;8788;49.930;8.660;2022-08-25T06:02:43;21.70;94.70
17341;DHT22;8788;49.930;8.660;2022-08-25T06:05:12;21.70;94.90
17341;DHT22;8788;49.930;8.660;2022-08-25T06:07:43;21.80;95.10
17341;DHT22;8788;49.930;8.660;2022-08-25T06:10:11;21.90;95.30
17341;DHT22;8788;49.930;8.660;2022-08-25T06:12:41;22.00;95.50
17341;DHT22;8788;49.930;8.660;2022-08-25T06:15:11;22.10;95.60
17341;DHT22;8788;49.930;8.660;2022-08-25T06:17:38;22.20;95.70
17341;DHT22;8788;49.930;8.660;2022-08-25T06:20:10;22.30;95.70
17341;DHT22;8788;49.930;8.660;2022-08-25T06:22:37;22.40;95.90
17341;DHT22;8788;49.930;8.660;2022-08-25T06:25:08;22.50;95.90
17341;DHT22;8788;49.930;8.660;2022-08-25T06:27:36;22.70;95.90
17341;DHT22;8788;49.930;8.660;2022-08-25T06:30:04;22.80;95.80
17341;DHT22;8788;49.930;8.660;2022-08-25T06:32:31;22.90;95.80
17341;DHT22;8788;49.930;8.660;2022-08-25T06:34:59;22.90;95.80
17341;DHT22;8788;49.930;8.660;2022-08-25T06:37:26;23.00;95.90
17341;DHT22;8788;49.930;8.660;2022-08-25T06:39:53;23.00;95.80
17341;DHT22;8788;49.930;8.660;2022-08-25T06:42:21;23.20;95.80
17341;DHT22;8788;49.930;8.660;2022-08-25T06:44:49;23.20;95.60
17341;DHT22;8788;49.930;8.660;2022-08-25T06:47:16;23.30;95.60
17341;DHT22;8788;49.930;8.660;2022-08-25T06:49:44;23.40;95.60
17341;DHT22;8788;49.930;8.660;2022-08-25T06:52:12;23.40;95.50
17341;DHT22;8788;49.930;8.660;2022-08-25T06:54:39;23.40;95.50
17341;DHT22;8788;49.930;8.660;2022-08-25T06:57:07;23.50;95.40
17341;DHT22;8788;49.930;8.660;2022-08-25T06:59:36;23.50;95.40
17341;DHT22;8788;49.930;8.660;2022-08-25T07:02:05;23.60;95.50
17341;DHT22;8788;49.930;8.660;2022-08-25T07:04:34;23.60;95.40
17341;DHT22;8788;49.930;8.660;2022-08-25T07:07:02;23.80;95.40
17341;DHT22;8788;49.930;8.660;2022-08-25T07:09:29;23.80;95.30
17341;DHT22;8788;49.930;8.660;2022-08-25T07:11:57;23.90;95.20
17341;DHT22;8788;49.930;8.660;2022-08-25T07:14:24;24.00;95.20
17341;DHT22;8788;49.930;8.660;2022-08-25T07:16:52;24.10;95.30
17341;DHT22;8788;49.930;8.660;2022-08-25T07:19:19;24.10;95.40
17341;DHT22;8788;49.930;8.660;2022-08-25T07:21:49;24.30;95.50
17341;DHT22;8788;49.930;8.660;2022-08-25T07:24:16;24.40;95.50
17341;DHT22;8788;49.930;8.660;2022-08-25T07:26:44;24.40;95.30
17341;DHT22;8788;49.930;8.660;2022-08-25T07:29:13;24.50;95.60
17341;DHT22;8788;49.930;8.660;2022-08-25T07:31:41;24.60;95.30
17341;DHT22;8788;49.930;8.660;2022-08-25T07:34:10;24.60;95.30
17341;DHT22;8788;49.930;8.660;2022-08-25T07:36:55;24.70;95.30
17341;DHT22;8788;49.930;8.660;2022-08-25T07:39:24;24.70;95.30
17341;DHT22;8788;49.930;8.660;2022-08-25T07:41:52;24.80;95.30
17341;DHT22;8788;49.930;8.660;2022-08-25T07:44:20;24.80;95.30
17341;DHT22;8788;49.930;8.660;2022-08-25T07:46:47;24.90;95.30
17341;DHT22;8788;49.930;8.660;2022-08-25T07:49:16;24.90;95.40
17341;DHT22;8788;49.930;8.660;2022-08-25T07:51:46;25.00;95.30
17341;DHT22;8788;49.930;8.660;2022-08-25T07:54:13;25.10;95.30
17341;DHT22;8788;49.930;8.660;2022-08-25T07:56:42;25.20;95.20
17341;DHT22;8788;49.930;8.660;2022-08-25T07:59:09;25.20;95.10
17341;DHT22;8788;49.930;8.660;2022-08-25T08:01:37;25.30;95.10
17341;DHT22;8788;49.930;8.660;2022-08-25T08:04:05;25.30;95.30
17341;DHT22;8788;49.930;8.660;2022-08-25T08:06:33;25.40;95.00
17341;DHT22;8788;49.930;8.660;2022-08-25T08:09:00;25.50;95.10
17341;DHT22;8788;49.930;8.660;2022-08-25T08:11:29;25.50;94.80
17341;DHT22;8788;49.930;8.660;2022-08-25T08:13:58;25.60;94.90
17341;DHT22;8788;49.930;8.660;2022-08-25T08:16:26;25.70;94.80
17341;DHT22;8788;49.930;8.660;2022-08-25T08:18:54;25.80;94.70
17341;DHT22;8788;49.930;8.660;2022-08-25T08:21:25;25.90;94.60
17341;DHT22;8788;49.930;8.660;2022-08-25T08:23:54;26.00;94.50
17341;DHT22;8788;49.930;8.660;2022-08-25T08:26:22;26.10;94.40
17341;DHT22;8788;49.930;8.660;2022-08-25T08:28:49;26.20;94.30
17341;DHT22;8788;49.930;8.660;2022-08-25T08:31:17;26.30;94.10
17341;DHT22;8788;49.930;8.660;2022-08-25T08:33:45;26.30;94.00
17341;DHT22;8788;49.930;8.660;2022-08-25T08:36:12;26.40;93.80
17341;DHT22;8788;49.930;8.660;2022-08-25T08:38:40;26.50;93.60
17341;DHT22;8788;49.930;8.660;2022-08-25T08:41:20;26.60;93.50
17341;DHT22;8788;49.930;8.660;2022-08-25T08:44:25;26.60;93.20
17341;DHT22;8788;49.930;8.660;2022-08-25T08:46:59;26.70;93.10
17341;DHT22;8788;49.930;8.660;2022-08-25T08:49:33;26.80;92.80
17341;DHT22;8788;49.930;8.660;2022-08-25T08:52:04;26.80;92.60
17341;DHT22;8788;49.930;8.660;2022-08-25T08:54:36;26.90;92.40
17341;DHT22;8788;49.930;8.660;2022-08-25T08:57:10;27.00;92.40
17341;DHT22;8788;49.930;8.660;2022-08-25T08:59:44;27.10;92.30
17341;DHT22;8788;49.930;8.660;2022-08-25T09:02:22;27.10;92.20
17341;DHT22;8788;49.930;8.660;2022-08-25T09:04:56;27.20;91.90
17341;DHT22;8788;49.930;8.660;2022-08-25T09:07:28;27.20;91.70
17341;DHT22;8788;49.930;8.660;2022-08-25T09:09:56;27.30;91.90
17341;DHT22;8788;49.930;8.660;2022-08-25T09:12:32;27.40;91.50
17341;DHT22;8788;49.930;8.660;2022-08-25T09:15:06;27.50;91.40
17341;DHT22;8788;49.930;8.660;2022-08-25T09:17:53;27.60;91.30
17341;DHT22;8788;49.930;8.660;2022-08-25T09:20:38;27.60;91.10
17341;DHT22;8788;49.930;8.660;2022-08-25T09:23:16;27.70;90.90
17341;DHT22;8788;49.930;8.660;2022-08-25T09:25:54;27.70;90.70
17341;DHT22;8788;49.930;8.660;2022-08-25T09:28:30;27.80;90.50
17341;DHT22;8788;49.930;8.660;2022-08-25T09:31:00;27.90;90.40
17341;DHT22;8788;49.930;8.660;2022-08-25T09:33:29;28.00;90.30
17341;DHT22;8788;49.930;8.660;2022-08-25T09:35:57;28.00;90.20
17341;DHT22;8788;49.930;8.660;2022-08-25T09:38:26;28.00;90.10
17341;DHT22;8788;49.930;8.660;2022-08-25T09:40:56;28.10;90.00
17341;DHT22;8788;49.930;8.660;2022-08-25T09:43:29;28.10;89.60
17341;DHT22;8788;49.930;8.660;2022-08-25T09:45:59;28.20;89.30
17341;DHT22;8788;49.930;8.660;2022-08-25T09:48:28;28.20;89.60
17341;DHT22;8788;49.930;8.660;2022-08-25T09:51:12;28.30;89.60
17341;DHT22;8788;49.930;8.660;2022-08-25T09:53:47;28.40;89.20
17341;DHT22;8788;49.930;8.660;2022-08-25T09:56:18;28.50;89.20
17341;DHT22;8788;49.930;8.660;2022-08-25T09:58:48;28.60;88.90
17341;DHT22;8788;49.930;8.660;2022-08-25T10:01:17;28.70;88.50
17341;DHT22;8788;49.930;8.660;2022-08-25T10:03:54;28.70;88.00
17341;DHT22;8788;49.930;8.660;2022-08-25T10:06:22;28.80;87.50
17341;DHT22;8788;49.930;8.660;2022-08-25T10:08:57;28.80;87.40
17341;DHT22;8788;49.930;8.660;2022-08-25T10:11:38;28.90;86.90
17341;DHT22;8788;49.930;8.660;2022-08-25T10:14:18;28.90;86.80
17341;DHT22;8788;49.930;8.660;2022-08-25T10:16:47;28.90;86.50
17341;DHT22;8788;49.930;8.660;2022-08-25T10:19:23;29.00;86.40
17341;DHT22;8788;49.930;8.660;2022-08-25T10:22:04;29.10;85.80
17341;DHT22;8788;49.930;8.660;2022-08-25T10:24:32;29.10;85.50
17341;DHT22;8788;49.930;8.660;2022-08-25T10:27:07;29.20;85.00
17341;DHT22;8788;49.930;8.660;2022-08-25T10:30:03;29.20;84.80
17341;DHT22;8788;49.930;8.660;2022-08-25T10:32:40;29.30;84.70
17341;DHT22;8788;49.930;8.660;2022-08-25T10:35:12;29.30;84.70
17341;DHT22;8788;49.930;8.660;2022-08-25T10:37:50;29.30;84.00
17341;DHT22;8788;49.930;8.660;2022-08-25T10:40:24;29.30;83.10
17341;DHT22;8788;49.930;8.660;2022-08-25T10:43:01;29.40;83.50
17341;DHT22;8788;49.930;8.660;2022-08-25T10:45:36;29.50;83.50
17341;DHT22;8788;49.930;8.660;2022-08-25T10:48:30;29.60;83.10
17341;DHT22;8788;49.930;8.660;2022-08-25T10:51:04;29.70;82.40
17341;DHT22;8788;49.930;8.660;2022-08-25T10:53:39;29.70;82.20
17341;DHT22;8788;49.930;8.660;2022-08-25T10:56:13;29.70;81.40
17341;DHT22;8788;49.930;8.660;2022-08-25T10:59:29;29.80;81.40
17341;DHT22;8788;49.930;8.660;2022-08-25T11:02:28;29.90;80.90
17341;DHT22;8788;49.930;8.660;2022-08-25T11:05:04;30.00;80.90
17341;DHT22;8788;49.930;8.660;2022-08-25T11:07:34;30.10;80.60
17341;DHT22;8788;49.930;8.660;2022-08-25T11:10:07;30.00;80.00
17341;DHT22;8788;49.930;8.660;2022-08-25T11:12:39;30.00;79.40
17341;DHT22;8788;49.930;8.660;2022-08-25T11:15:09;29.90;79.00
17341;DHT22;8788;49.930;8.660;2022-08-25T11:17:45;29.80;79.20
17341;DHT22;8788;49.930;8.660;2022-08-25T11:20:18;29.80;79.40
17341;DHT22;8788;49.930;8.660;2022-08-25T11:22:53;30.00;79.60
17341;DHT22;8788;49.930;8.660;2022-08-25T11:25:27;30.20;79.10
17341;DHT22;8788;49.930;8.660;2022-08-25T11:28:02;30.30;78.50
17341;DHT22;8788;49.930;8.660;2022-08-25T11:30:30;30.40;78.30
17341;DHT22;8788;49.930;8.660;2022-08-25T11:32:59;30.60;77.60
17341;DHT22;8788;49.930;8.660;2022-08-25T11:35:28;30.50;76.70
17341;DHT22;8788;49.930;8.660;2022-08-25T11:38:09;30.30;76.20
17341;DHT22;8788;49.930;8.660;2022-08-25T11:40:50;30.20;76.10
17341;DHT22;8788;49.930;8.660;2022-08-25T11:43:31;30.30;76.10
17341;DHT22;8788;49.930;8.660;2022-08-25T11:46:17;30.50;76.20
17341;DHT22;8788;49.930;8.660;2022-08-25T11:48:58;30.70;75.30
17341;DHT22;8788;49.930;8.660;2022-08-25T11:51:29;30.80;74.50
17341;DHT22;8788;49.930;8.660;2022-08-25T11:54:22;31.00;74.10
17341;DHT22;8788;49.930;8.660;2022-08-25T11:56:54;31.10;72.50
17341;DHT22;8788;49.930;8.660;2022-08-25T12:02:33;31.20;71.20
17341;DHT22;8788;49.930;8.660;2022-08-25T12:05:03;31.20;71.00
17341;DHT22;8788;49.930;8.660;2022-08-25T12:07:59;31.30;70.80
17341;DHT22;8788;49.930;8.660;2022-08-25T12:11:01;31.30;70.00
17341;DHT22;8788;49.930;8.660;2022-08-25T12:13:41;31.40;69.90
17341;DHT22;8788;49.930;8.660;2022-08-25T12:16:37;31.50;69.20
17341;DHT22;8788;49.930;8.660;2022-08-25T12:19:51;31.50;68.50
17341;DHT22;8788;49.930;8.660;2022-08-25T12:22:42;31.30;68.60
17341;DHT22;8788;49.930;8.660;2022-08-25T12:25:47;31.40;69.10
17341;DHT22;8788;49.930;8.660;2022-08-25T12:28:38;31.40;69.10
17341;DHT22;8788;49.930;8.660;2022-08-25T12:31:16;31.50;69.20
17341;DHT22;8788;49.930;8.660;2022-08-25T12:33:56;31.60;68.80
17341;DHT22;8788;49.930;8.660;2022-08-25T12:36:31;31.60;69.00
17341;DHT22;8788;49.930;8.660;2022-08-25T12:39:22;31.40;68.70
17341;DHT22;8788;49.930;8.660;2022-08-25T12:41:53;31.20;68.30
17341;DHT22;8788;49.930;8.660;2022-08-25T12:44:34;31.10;68.50
17341;DHT22;8788;49.930;8.660;2022-08-25T12:47:23;31.20;68.30
17341;DHT22;8788;49.930;8.660;2022-08-25T12:49:52;31.30;69.10
17341;DHT22;8788;49.930;8.660;2022-08-25T12:52:22;31.50;68.10
17341;DHT22;8788;49.930;8.660;2022-08-25T12:54:56;31.60;67.40
17341;DHT22;8788;49.930;8.660;2022-08-25T12:57:37;31.70;67.10
17341;DHT22;8788;49.930;8.660;2022-08-25T13:00:20;31.90;67.10
17341;DHT22;8788;49.930;8.660;2022-08-25T13:03:08;32.10;67.10
17341;DHT22;8788;49.930;8.660;2022-08-25T13:11:39;31.80;65.70
17341;DHT22;8788;49.930;8.660;2022-08-25T13:14:15;31.60;66.00
17341;DHT22;8788;49.930;8.660;2022-08-25T13:16:52;31.60;66.10
17341;DHT22;8788;49.930;8.660;2022-08-25T13:19:20;31.60;65.90
17341;DHT22;8788;49.930;8.660;2022-08-25T13:21:47;31.50;65.90
17341;DHT22;8788;49.930;8.660;2022-08-25T13:24:21;31.60;65.90
17341;DHT22;8788;49.930;8.660;2022-08-25T13:26:53;31.80;65.70
17341;DHT22;8788;49.930;8.660;2022-08-25T13:29:23;32.00;65.50
17341;DHT22;8788;49.930;8.660;2022-08-25T13:31:55;32.10;65.30
17341;DHT22;8788;49.930;8.660;2022-08-25T13:34:25;32.20;65.00
17341;DHT22;8788;49.930;8.660;2022-08-25T13:36:52;32.40;64.70
17341;DHT22;8788;49.930;8.660;2022-08-25T13:39:38;32.40;64.10
17341;DHT22;8788;49.930;8.660;2022-08-25T13:42:13;32.50;64.10
17341;DHT22;8788;49.930;8.660;2022-08-25T13:44:41;32.50;63.50
17341;DHT22;8788;49.930;8.660;2022-08-25T13:47:12;32.60;63.20
17341;DHT22;8788;49.930;8.660;2022-08-25T13:49:42;32.60;63.20
17341;DHT22;8788;49.930;8.660;2022-08-25T13:52:16;32.70;62.80
17341;DHT22;8788;49.930;8.660;2022-08-25T13:54:56;32.70;62.60
17341;DHT22;8788;49.930;8.660;2022-08-25T13:57:27;32.80;62.50
17341;DHT22;8788;49.930;8.660;2022-08-25T14:00:08;32.70;62.20
17341;DHT22;8788;49.930;8.660;2022-08-25T14:02:42;32.70;62.60
17341;DHT22;8788;49.930;8.660;2022-08-25T14:05:11;32.80;62.40
17341;DHT22;8788;49.930;8.660;2022-08-25T14:07:39;32.90;62.30
17341;DHT22;8788;49.930;8.660;2022-08-25T14:10:08;33.00;61.70
17341;DHT22;8788;49.930;8.660;2022-08-25T14:12:39;32.90;61.50
17341;DHT22;8788;49.930;8.660;2022-08-25T14:15:25;33.00;61.40
17341;DHT22;8788;49.930;8.660;2022-08-25T14:18:00;33.00;61.60
17341;DHT22;8788;49.930;8.660;2022-08-25T14:20:30;33.00;61.10
17341;DHT22;8788;49.930;8.660;2022-08-25T14:23:04;33.20;61.50
17341;DHT22;8788;49.930;8.660;2022-08-25T14:25:32;33.30;61.20
17341;DHT22;8788;49.930;8.660;2022-08-25T14:28:03;33.30;60.70
17341;DHT22;8788;49.930;8.660;2022-08-25T14:30:33;33.30;60.40
17341;DHT22;8788;49.930;8.660;2022-08-25T14:33:01;33.30;60.40
17341;DHT22;8788;49.930;8.660;2022-08-25T14:35:29;33.30;60.30
17341;DHT22;8788;49.930;8.660;2022-08-25T14:37:56;33.40;60.30
17341;DHT22;8788;49.930;8.660;2022-08-25T14:40:23;33.40;60.20
17341;DHT22;8788;49.930;8.660;2022-08-25T14:42:51;33.40;59.90
17341;DHT22;8788;49.930;8.660;2022-08-25T14:45:19;33.30;59.80
17341;DHT22;8788;49.930;8.660;2022-08-25T14:47:48;33.20;59.80
17341;DHT22;8788;49.930;8.660;2022-08-25T14:50:15;32.90;59.80
17341;DHT22;8788;49.930;8.660;2022-08-25T14:52:46;32.80;59.80
17341;DHT22;8788;49.930;8.660;2022-08-25T14:55:13;32.50;60.00
17341;DHT22;8788;49.930;8.660;2022-08-25T14:57:40;32.50;60.40
17341;DHT22;8788;49.930;8.660;2022-08-25T15:00:08;32.60;60.70
17341;DHT22;8788;49.930;8.660;2022-08-25T15:02:40;32.80;60.80
17341;DHT22;8788;49.930;8.660;2022-08-25T15:05:09;33.00;60.70
17341;DHT22;8788;49.930;8.660;2022-08-25T15:07:37;33.10;60.60
17341;DHT22;8788;49.930;8.660;2022-08-25T15:10:22;33.20;60.40
17341;DHT22;8788;49.930;8.660;2022-08-25T15:12:49;33.20;60.60
17341;DHT22;8788;49.930;8.660;2022-08-25T15:15:16;33.20;60.60
17341;DHT22;8788;49.930;8.660;2022-08-25T15:17:45;33.20;60.20
17341;DHT22;8788;49.930;8.660;2022-08-25T15:20:13;33.20;59.90
17341;DHT22;8788;49.930;8.660;2022-08-25T15:22:40;33.20;60.00
17341;DHT22;8788;49.930;8.660;2022-08-25T15:25:08;33.10;59.90
17341;DHT22;8788;49.930;8.660;2022-08-25T15:27:35;33.10;59.80
17341;DHT22;8788;49.930;8.660;2022-08-25T15:30:03;33.20;59.90
17341;DHT22;8788;49.930;8.660;2022-08-25T15:32:31;33.20;59.80
17341;DHT22;8788;49.930;8.660;2022-08-25T15:35:00;33.20;60.00
17341;DHT22;8788;49.930;8.660;2022-08-25T15:37:27;33.20;60.20
17341;DHT22;8788;49.930;8.660;2022-08-25T15:39:55;33.20;59.90
17341;DHT22;8788;49.930;8.660;2022-08-25T15:42:23;33.30;59.70
17341;DHT22;8788;49.930;8.660;2022-08-25T15:44:50;33.20;59.70
17341;DHT22;8788;49.930;8.660;2022-08-25T15:47:17;33.20;59.60
17341;DHT22;8788;49.930;8.660;2022-08-25T15:49:46;33.20;59.30
17341;DHT22;8788;49.930;8.660;2022-08-25T15:52:15;33.10;59.40
17341;DHT22;8788;49.930;8.660;2022-08-25T15:54:42;33.00;58.90
17341;DHT22;8788;49.930;8.660;2022-08-25T15:57:09;32.80;59.00
17341;DHT22;8788;49.930;8.660;2022-08-25T15:59:36;32.80;59.40
17341;DHT22;8788;49.930;8.660;2022-08-25T16:02:05;32.80;59.50
17341;DHT22;8788;49.930;8.660;2022-08-25T16:04:32;32.70;59.60
17341;DHT22;8788;49.930;8.660;2022-08-25T16:06:59;32.70;59.40
17341;DHT22;8788;49.930;8.660;2022-08-25T16:09:28;32.50;59.50
17341;DHT22;8788;49.930;8.660;2022-08-25T16:11:56;32.50;59.60
17341;DHT22;8788;49.930;8.660;2022-08-25T16:14:23;32.50;59.50
17341;DHT22;8788;49.930;8.660;2022-08-25T16:16:50;32.50;59.40
17341;DHT22;8788;49.930;8.660;2022-08-25T16:19:17;32.50;59.40
17341;DHT22;8788;49.930;8.660;2022-08-25T16:21:45;32.50;59.40
17341;DHT22;8788;49.930;8.660;2022-08-25T16:24:12;32.40;59.50
17341;DHT22;8788;49.930;8.660;2022-08-25T16:26:41;32.40;59.80
17341;DHT22;8788;49.930;8.660;2022-08-25T16:29:12;32.40;59.80
17341;DHT22;8788;49.930;8.660;2022-08-25T16:31:40;32.30;59.80
17341;DHT22;8788;49.930;8.660;2022-08-25T16:34:07;32.30;59.80
17341;DHT22;8788;49.930;8.660;2022-08-25T16:36:35;32.20;59.70
17341;DHT22;8788;49.930;8.660;2022-08-25T16:39:03;32.10;59.80
17341;DHT22;8788;49.930;8.660;2022-08-25T16:41:31;32.10;59.70
17341;DHT22;8788;49.930;8.660;2022-08-25T16:44:02;32.00;59.60
17341;DHT22;8788;49.930;8.660;2022-08-25T16:46:32;32.00;59.90
17341;DHT22;8788;49.930;8.660;2022-08-25T16:49:00;32.00;60.00
17341;DHT22;8788;49.930;8.660;2022-08-25T16:51:27;31.90;60.00
17341;DHT22;8788;49.930;8.660;2022-08-25T16:53:55;32.00;59.90
17341;DHT22;8788;49.930;8.660;2022-08-25T16:56:40;32.00;59.70
17341;DHT22;8788;49.930;8.660;2022-08-25T16:59:10;31.90;59.90
17341;DHT22;8788;49.930;8.660;2022-08-25T17:01:39;31.90;60.10
17341;DHT22;8788;49.930;8.660;2022-08-25T17:04:07;31.90;60.40
17341;DHT22;8788;49.930;8.660;2022-08-25T17:06:37;31.90;60.60
17341;DHT22;8788;49.930;8.660;2022-08-25T17:09:06;31.90;60.60
17341;DHT22;8788;49.930;8.660;2022-08-25T17:11:35;31.90;60.80
17341;DHT22;8788;49.930;8.660;2022-08-25T17:14:09;31.90;60.60
17341;DHT22;8788;49.930;8.660;2022-08-25T17:16:36;31.90;60.30
17341;DHT22;8788;49.930;8.660;2022-08-25T17:19:05;31.90;60.20
17341;DHT22;8788;49.930;8.660;2022-08-25T17:21:35;31.80;60.00
17341;DHT22;8788;49.930;8.660;2022-08-25T17:24:03;31.80;59.90
17341;DHT22;8788;49.930;8.660;2022-08-25T17:26:31;31.70;60.00
17341;DHT22;8788;49.930;8.660;2022-08-25T17:28:59;31.60;60.70
17341;DHT22;8788;49.930;8.660;2022-08-25T17:31:28;31.60;61.10
17341;DHT22;8788;49.930;8.660;2022-08-25T17:33:56;31.60;61.10
17341;DHT22;8788;49.930;8.660;2022-08-25T17:36:23;31.60;61.10
17341;DHT22;8788;49.930;8.660;2022-08-25T17:38:50;31.60;60.80
17341;DHT22;8788;49.930;8.660;2022-08-25T17:41:17;31.50;60.90
17341;DHT22;8788;49.930;8.660;2022-08-25T17:43:45;31.40;61.00
17341;DHT22;8788;49.930;8.660;2022-08-25T17:46:13;31.30;61.00
17341;DHT22;8788;49.930;8.660;2022-08-25T17:48:41;31.20;61.10
17341;DHT22;8788;49.930;8.660;2022-08-25T17:51:08;31.10;61.40
17341;DHT22;8788;49.930;8.660;2022-08-25T17:53:36;31.00;61.40
17341;DHT22;8788;49.930;8.660;2022-08-25T17:56:06;30.90;61.60
17341;DHT22;8788;49.930;8.660;2022-08-25T17:58:34;30.80;61.80
17341;DHT22;8788;49.930;8.660;2022-08-25T18:01:01;30.70;61.80
17341;DHT22;8788;49.930;8.660;2022-08-25T18:03:29;30.60;61.90
17341;DHT22;8788;49.930;8.660;2022-08-25T18:05:58;30.50;62.20
17341;DHT22;8788;49.930;8.660;2022-08-25T18:08:26;30.50;62.40
17341;DHT22;8788;49.930;8.660;2022-08-25T18:10:53;30.40;62.50
17341;DHT22;8788;49.930;8.660;2022-08-25T18:13:21;30.30;62.70
17341;DHT22;8788;49.930;8.660;2022-08-25T18:15:48;30.30;63.00
17341;DHT22;8788;49.930;8.660;2022-08-25T18:18:15;30.20;63.20
17341;DHT22;8788;49.930;8.660;2022-08-25T18:20:44;30.00;63.30
17341;DHT22;8788;49.930;8.660;2022-08-25T18:23:13;29.90;63.50
17341;DHT22;8788;49.930;8.660;2022-08-25T18:25:40;29.90;63.80
17341;DHT22;8788;49.930;8.660;2022-08-25T18:28:08;29.80;64.10
17341;DHT22;8788;49.930;8.660;2022-08-25T18:30:36;29.60;64.10
17341;DHT22;8788;49.930;8.660;2022-08-25T18:33:03;29.50;64.10
17341;DHT22;8788;49.930;8.660;2022-08-25T18:35:30;29.50;64.20
17341;DHT22;8788;49.930;8.660;2022-08-25T18:37:58;29.40;64.30
17341;DHT22;8788;49.930;8.660;2022-08-25T18:40:45;29.40;64.50
17341;DHT22;8788;49.930;8.660;2022-08-25T18:43:13;29.20;64.60
17341;DHT22;8788;49.930;8.660;2022-08-25T18:45:44;29.10;64.80
17341;DHT22;8788;49.930;8.660;2022-08-25T18:48:13;29.10;65.10
17341;DHT22;8788;49.930;8.660;2022-08-25T18:50:42;28.90;65.30
17341;DHT22;8788;49.930;8.660;2022-08-25T18:53:10;28.90;65.50
17341;DHT22;8788;49.930;8.660;2022-08-25T18:55:39;28.80;65.80
17341;DHT22;8788;49.930;8.660;2022-08-25T18:58:10;28.70;66.00
17341;DHT22;8788;49.930;8.660;2022-08-25T19:00:40;28.60;66.40
17341;DHT22;8788;49.930;8.660;2022-08-25T19:03:09;28.60;66.70
17341;DHT22;8788;49.930;8.660;2022-08-25T19:05:39;28.50;66.90
17341;DHT22;8788;49.930;8.660;2022-08-25T19:08:09;28.40;67.10
17341;DHT22;8788;49.930;8.660;2022-08-25T19:10:37;28.30;67.20
17341;DHT22;8788;49.930;8.660;2022-08-25T19:13:05;28.30;67.50
17341;DHT22;8788;49.930;8.660;2022-08-25T19:15:35;28.20;67.80
17341;DHT22;8788;49.930;8.660;2022-08-25T19:18:03;28.10;69.10
17341;DHT22;8788;49.930;8.660;2022-08-25T19:20:31;28.00;68.80
17341;DHT22;8788;49.930;8.660;2022-08-25T19:22:59;27.80;69.20
17341;DHT22;8788;49.930;8.660;2022-08-25T19:25:28;27.70;69.90
17341;DHT22;8788;49.930;8.660;2022-08-25T19:27:57;27.50;70.20
17341;DHT22;8788;49.930;8.660;2022-08-25T19:30:27;27.40;70.50
17341;DHT22;8788;49.930;8.660;2022-08-25T19:32:56;27.30;70.90
17341;DHT22;8788;49.930;8.660;2022-08-25T19:35:27;27.20;71.10
17341;DHT22;8788;49.930;8.660;2022-08-25T19:37:56;27.10;71.20
17341;DHT22;8788;49.930;8.660;2022-08-25T19:40:24;27.10;71.40
17341;DHT22;8788;49.930;8.660;2022-08-25T19:42:52;27.10;71.60
17341;DHT22;8788;49.930;8.660;2022-08-25T19:45:21;27.00;71.90
17341;DHT22;8788;49.930;8.660;2022-08-25T19:47:49;26.90;72.20
17341;DHT22;8788;49.930;8.660;2022-08-25T19:50:20;26.80;72.60
17341;DHT22;8788;49.930;8.660;2022-08-25T19:52:48;26.70;73.10
17341;DHT22;8788;49.930;8.660;2022-08-25T19:55:15;26.60;73.40
17341;DHT22;8788;49.930;8.660;2022-08-25T19:57:47;26.50;73.70
17341;DHT22;8788;49.930;8.660;2022-08-25T20:00:16;26.40;74.00
17341;DHT22;8788;49.930;8.660;2022-08-25T20:02:44;26.30;74.40
17341;DHT22;8788;49.930;8.660;2022-08-25T20:05:12;26.30;74.60
17341;DHT22;8788;49.930;8.660;2022-08-25T20:07:41;26.20;74.80
17341;DHT22;8788;49.930;8.660;2022-08-25T20:10:10;26.20;74.80
17341;DHT22;8788;49.930;8.660;2022-08-25T20:12:37;26.10;75.00
17341;DHT22;8788;49.930;8.660;2022-08-25T20:15:06;26.10;75.20
17341;DHT22;8788;49.930;8.660;2022-08-25T20:17:34;26.00;75.40
17341;DHT22;8788;49.930;8.660;2022-08-25T20:20:05;25.90;75.60
17341;DHT22;8788;49.930;8.660;2022-08-25T20:22:35;25.90;75.80
17341;DHT22;8788;49.930;8.660;2022-08-25T20:25:06;25.90;75.90